sensor_id;sensor_type;location;lat;lon;timestamp;P1;durP1;ratioP1;P2;durP2;ratioP2
81026;SDS011;70506;49.320;8.446;2024-03-06T00:02:19;6.10;;;2.70;;
81026;SDS011;70506;49.320;8.446;2024-03-06T00:04:45;6.13;;;2.70;;
81026;SDS011;70506;49.320;8.446;2024-03-06T00:07:10;9.23;;;3.13;;
81026;SDS011;70506;49.320;8.446;2024-03-06T00:09:35;5.75;;;2.58;;
81026;SDS011;70506;49.320;8.446;2024-03-06T00:12:01;4.75;;;2.75;;
81026;SDS011;70506;49.320;8.446;2024-03-06T00:14:27;6.40;;;2.97;;
81026;SDS011;70506;49.320;8.446;2024-03-06T00:16:52;7.00;;;2.85;;
81026;SDS011;70506;49.320;8.446;2024-03-06T00:19:20;4.20;;;3.00;;
81026;SDS011;70506;49.320;8.446;2024-03-06T00:21:46;7.95;;;3.17;;
81026;SDS011;70506;49.320;8.446;2024-03-06T00:24:12;10.50;;;2.92;;
81026;SDS011;70506;49.320;8.446;2024-03-06T00:26:39;3.97;;;2.45;;
81026;SDS011;70506;49.320;8.446;2024-03-06T00:29:05;4.38;;;2.25;;
81026;SDS011;70506;49.320;8.446;2024-03-06T00:31:30;6.80;;;2.60;;
81026;SDS011;70506;49.320;8.446;2024-03-06T00:33:56;4.10;;;2.50;;
81026;SDS011;70506;49.320;8.446;2024-03-06T00:36:21;5.47;;;2.50;;
81026;SDS011;70506;49.320;8.446;2024-03-06T00:38:47;5.50;;;2.78;;
81026;SDS011;70506;49.320;8.446;2024-03-06T00:41:12;4.70;;;2.53;;
81026;SDS011;70506;49.320;8.446;2024-03-06T00:43:38;4.83;;;2.43;;
81026;SDS011;70506;49.320;8.446;2024-03-06T00:46:03;5.50;;;2.42;;
81026;SDS011;70506;49.320;8.446;2024-03-06T00:48:28;5.53;;;2.53;;
81026;SDS011;70506;49.320;8.446;2024-03-06T00:50:54;6.23;;;2.07;;
81026;SDS011;70506;49.320;8.446;2024-03-06T00:53:19;4.65;;;2.20;;
81026;SDS011;70506;49.320;8.446;2024-03-06T00:55:44;5.53;;;2.60;;
81026;SDS011;70506;49.320;8.446;2024-03-06T00:58:10;4.15;;;2.35;;
81026;SDS011;70506;49.320;8.446;2024-03-06T01:00:35;5.80;;;2.33;;
81026;SDS011;70506;49.320;8.446;2024-03-06T01:03:01;8.10;;;2.25;;
81026;SDS011;70506;49.320;8.446;2024-03-06T01:05:26;4.13;;;2.20;;
81026;SDS011;70506;49.320;8.446;2024-03-06T01:07:52;6.93;;;2.95;;
81026;SDS011;70506;49.320;8.446;2024-03-06T01:10:19;6.88;;;3.13;;
81026;SDS011;70506;49.320;8.446;2024-03-06T01:12:44;5.73;;;2.57;;
81026;SDS011;70506;49.320;8.446;2024-03-06T01:15:10;6.10;;;2.22;;
81026;SDS011;70506;49.320;8.446;2024-03-06T01:17:36;3.85;;;2.15;;
81026;SDS011;70506;49.320;8.446;2024-03-06T01:20:01;3.53;;;2.08;;
81026;SDS011;70506;49.320;8.446;2024-03-06T01:22:28;5.40;;;2.70;;
81026;SDS011;70506;49.320;8.446;2024-03-06T01:24:54;5.40;;;2.20;;
81026;SDS011;70506;49.320;8.446;2024-03-06T01:27:19;4.73;;;2.90;;
81026;SDS011;70506;49.320;8.446;2024-03-06T01:29:44;5.13;;;2.37;;
81026;SDS011;70506;49.320;8.446;2024-03-06T01:32:10;7.40;;;2.67;;
81026;SDS011;70506;49.320;8.446;2024-03-06T01:34:43;3.17;;;2.03;;
81026;SDS011;70506;49.320;8.446;2024-03-06T01:37:08;4.45;;;2.20;;
81026;SDS011;70506;49.320;8.446;2024-03-06T01:39:34;3.38;;;2.10;;
81026;SDS011;70506;49.320;8.446;2024-03-06T01:42:00;4.25;;;2.13;;
81026;SDS011;70506;49.320;8.446;2024-03-06T01:44:26;3.97;;;1.70;;
81026;SDS011;70506;49.320;8.446;2024-03-06T01:46:51;3.40;;;2.17;;
81026;SDS011;70506;49.320;8.446;2024-03-06T01:49:16;5.63;;;2.40;;
81026;SDS011;70506;49.320;8.446;2024-03-06T01:51:45;4.47;;;2.08;;
81026;SDS011;70506;49.320;8.446;2024-03-06T01:54:14;4.43;;;2.20;;
81026;SDS011;70506;49.320;8.446;2024-03-06T01:56:42;4.82;;;2.28;;
81026;SDS011;70506;49.320;8.446;2024-03-06T01:59:12;5.63;;;2.55;;
81026;SDS011;70506;49.320;8.446;2024-03-06T02:01:38;5.10;;;2.35;;
81026;SDS011;70506;49.320;8.446;2024-03-06T02:06:30;3.70;;;1.75;;
81026;SDS011;70506;49.320;8.446;2024-03-06T02:08:55;4.85;;;2.25;;
81026;SDS011;70506;49.320;8.446;2024-03-06T02:11:21;6.32;;;2.53;;
81026;SDS011;70506;49.320;8.446;2024-03-06T02:13:46;5.00;;;2.40;;
81026;SDS011;70506;49.320;8.446;2024-03-06T02:16:12;4.35;;;2.45;;
81026;SDS011;70506;49.320;8.446;2024-03-06T02:18:37;6.22;;;2.90;;
81026;SDS011;70506;49.320;8.446;2024-03-06T02:21:03;4.85;;;3.10;;
81026;SDS011;70506;49.320;8.446;2024-03-06T02:23:29;5.05;;;2.78;;
81026;SDS011;70506;49.320;8.446;2024-03-06T02:25:55;5.95;;;2.95;;
81026;SDS011;70506;49.320;8.446;2024-03-06T02:28:20;4.80;;;3.27;;
81026;SDS011;70506;49.320;8.446;2024-03-06T02:30:49;4.97;;;2.90;;
81026;SDS011;70506;49.320;8.446;2024-03-06T02:33:15;5.28;;;3.03;;
81026;SDS011;70506;49.320;8.446;2024-03-06T02:35:41;7.18;;;2.80;;
81026;SDS011;70506;49.320;8.446;2024-03-06T02:38:06;7.37;;;3.47;;
81026;SDS011;70506;49.320;8.446;2024-03-06T02:40:31;6.38;;;2.92;;
81026;SDS011;70506;49.320;8.446;2024-03-06T02:42:57;5.68;;;2.90;;
81026;SDS011;70506;49.320;8.446;2024-03-06T02:45:22;5.95;;;2.92;;
81026;SDS011;70506;49.320;8.446;2024-03-06T02:47:48;7.35;;;2.90;;
81026;SDS011;70506;49.320;8.446;2024-03-06T02:50:13;5.72;;;3.10;;
81026;SDS011;70506;49.320;8.446;2024-03-06T02:52:39;5.82;;;3.20;;
81026;SDS011;70506;49.320;8.446;2024-03-06T02:55:05;8.85;;;2.90;;
81026;SDS011;70506;49.320;8.446;2024-03-06T02:57:30;3.97;;;2.30;;
81026;SDS011;70506;49.320;8.446;2024-03-06T02:59:56;6.77;;;3.53;;
81026;SDS011;70506;49.320;8.446;2024-03-06T03:02:22;5.00;;;2.63;;
81026;SDS011;70506;49.320;8.446;2024-03-06T03:04:48;7.40;;;3.20;;
81026;SDS011;70506;49.320;8.446;2024-03-06T03:07:13;5.77;;;2.90;;
81026;SDS011;70506;49.320;8.446;2024-03-06T03:09:39;8.53;;;3.20;;
81026;SDS011;70506;49.320;8.446;2024-03-06T03:12:05;6.07;;;2.93;;
81026;SDS011;70506;49.320;8.446;2024-03-06T03:14:30;10.32;;;3.25;;
81026;SDS011;70506;49.320;8.446;2024-03-06T03:16:55;4.83;;;2.73;;
81026;SDS011;70506;49.320;8.446;2024-03-06T03:19:21;6.47;;;2.60;;
81026;SDS011;70506;49.320;8.446;2024-03-06T03:21:46;5.50;;;3.05;;
81026;SDS011;70506;49.320;8.446;2024-03-06T03:24:12;6.50;;;3.03;;
81026;SDS011;70506;49.320;8.446;2024-03-06T03:26:37;6.07;;;3.03;;
81026;SDS011;70506;49.320;8.446;2024-03-06T03:29:03;5.67;;;3.00;;
81026;SDS011;70506;49.320;8.446;2024-03-06T03:31:28;7.23;;;3.43;;
81026;SDS011;70506;49.320;8.446;2024-03-06T03:33:54;12.18;;;3.05;;
81026;SDS011;70506;49.320;8.446;2024-03-06T03:36:19;4.73;;;2.83;;
81026;SDS011;70506;49.320;8.446;2024-03-06T03:38:44;7.57;;;3.23;;
81026;SDS011;70506;49.320;8.446;2024-03-06T03:41:10;6.70;;;3.33;;
81026;SDS011;70506;49.320;8.446;2024-03-06T03:43:37;8.35;;;3.80;;
81026;SDS011;70506;49.320;8.446;2024-03-06T03:46:06;5.07;;;2.78;;
81026;SDS011;70506;49.320;8.446;2024-03-06T03:48:31;5.43;;;3.45;;
81026;SDS011;70506;49.320;8.446;2024-03-06T03:51:00;5.93;;;2.83;;
81026;SDS011;70506;49.320;8.446;2024-03-06T03:53:26;7.15;;;3.22;;
81026;SDS011;70506;49.320;8.446;2024-03-06T03:55:51;6.53;;;3.53;;
81026;SDS011;70506;49.320;8.446;2024-03-06T03:58:16;6.33;;;3.23;;
81026;SDS011;70506;49.320;8.446;2024-03-06T04:00:42;7.27;;;4.10;;
81026;SDS011;70506;49.320;8.446;2024-03-06T04:03:07;6.35;;;3.80;;
81026;SDS011;70506;49.320;8.446;2024-03-06T04:05:32;5.77;;;3.20;;
81026;SDS011;70506;49.320;8.446;2024-03-06T04:07:58;5.72;;;3.15;;
81026;SDS011;70506;49.320;8.446;2024-03-06T04:10:23;7.70;;;3.53;;
81026;SDS011;70506;49.320;8.446;2024-03-06T04:12:48;7.13;;;3.47;;
81026;SDS011;70506;49.320;8.446;2024-03-06T04:15:14;6.77;;;3.63;;
81026;SDS011;70506;49.320;8.446;2024-03-06T04:17:39;8.45;;;3.70;;
81026;SDS011;70506;49.320;8.446;2024-03-06T04:20:06;7.63;;;3.63;;
81026;SDS011;70506;49.320;8.446;2024-03-06T04:22:32;7.57;;;3.50;;
81026;SDS011;70506;49.320;8.446;2024-03-06T04:24:57;5.82;;;3.33;;
81026;SDS011;70506;49.320;8.446;2024-03-06T04:27:24;7.35;;;3.83;;
81026;SDS011;70506;49.320;8.446;2024-03-06T04:29:50;8.02;;;3.55;;
81026;SDS011;70506;49.320;8.446;2024-03-06T04:32:15;8.67;;;4.47;;
81026;SDS011;70506;49.320;8.446;2024-03-06T04:34:40;6.03;;;2.97;;
81026;SDS011;70506;49.320;8.446;2024-03-06T04:37:05;6.63;;;3.30;;
81026;SDS011;70506;49.320;8.446;2024-03-06T04:39:31;6.47;;;3.57;;
81026;SDS011;70506;49.320;8.446;2024-03-06T04:41:57;5.82;;;2.78;;
81026;SDS011;70506;49.320;8.446;2024-03-06T04:44:22;7.43;;;2.77;;
81026;SDS011;70506;49.320;8.446;2024-03-06T04:46:49;4.43;;;2.47;;
81026;SDS011;70506;49.320;8.446;2024-03-06T04:49:15;8.32;;;2.45;;
81026;SDS011;70506;49.320;8.446;2024-03-06T04:51:41;8.03;;;3.47;;
81026;SDS011;70506;49.320;8.446;2024-03-06T04:54:06;5.47;;;2.87;;
81026;SDS011;70506;49.320;8.446;2024-03-06T04:56:31;6.53;;;3.27;;
81026;SDS011;70506;49.320;8.446;2024-03-06T04:58:57;5.57;;;2.80;;
81026;SDS011;70506;49.320;8.446;2024-03-06T05:01:27;6.00;;;3.13;;
81026;SDS011;70506;49.320;8.446;2024-03-06T05:03:53;4.95;;;2.83;;
81026;SDS011;70506;49.320;8.446;2024-03-06T05:06:19;4.70;;;2.80;;
81026;SDS011;70506;49.320;8.446;2024-03-06T05:08:44;8.53;;;3.50;;
81026;SDS011;70506;49.320;8.446;2024-03-06T05:11:09;6.73;;;3.10;;
81026;SDS011;70506;49.320;8.446;2024-03-06T05:13:35;5.87;;;2.77;;
81026;SDS011;70506;49.320;8.446;2024-03-06T05:16:00;7.07;;;3.20;;
81026;SDS011;70506;49.320;8.446;2024-03-06T05:18:25;5.23;;;2.70;;
81026;SDS011;70506;49.320;8.446;2024-03-06T05:20:51;5.83;;;2.67;;
81026;SDS011;70506;49.320;8.446;2024-03-06T05:23:16;7.20;;;3.30;;
81026;SDS011;70506;49.320;8.446;2024-03-06T05:25:42;5.63;;;3.03;;
81026;SDS011;70506;49.320;8.446;2024-03-06T05:28:08;5.03;;;3.00;;
81026;SDS011;70506;49.320;8.446;2024-03-06T05:30:33;7.87;;;3.07;;
81026;SDS011;70506;49.320;8.446;2024-03-06T05:32:58;7.47;;;3.00;;
81026;SDS011;70506;49.320;8.446;2024-03-06T05:35:24;7.57;;;2.97;;
81026;SDS011;70506;49.320;8.446;2024-03-06T05:37:49;6.18;;;3.17;;
81026;SDS011;70506;49.320;8.446;2024-03-06T05:40:14;7.67;;;2.97;;
81026;SDS011;70506;49.320;8.446;2024-03-06T05:42:40;6.30;;;3.03;;
81026;SDS011;70506;49.320;8.446;2024-03-06T05:45:05;6.13;;;3.15;;
81026;SDS011;70506;49.320;8.446;2024-03-06T05:47:35;6.03;;;3.67;;
81026;SDS011;70506;49.320;8.446;2024-03-06T05:50:07;6.35;;;3.53;;
81026;SDS011;70506;49.320;8.446;2024-03-06T05:52:32;6.35;;;3.10;;
81026;SDS011;70506;49.320;8.446;2024-03-06T05:54:59;5.18;;;3.00;;
81026;SDS011;70506;49.320;8.446;2024-03-06T05:57:24;10.15;;;3.50;;
81026;SDS011;70506;49.320;8.446;2024-03-06T05:59:50;8.77;;;4.00;;
81026;SDS011;70506;49.320;8.446;2024-03-06T06:02:15;7.43;;;3.22;;
81026;SDS011;70506;49.320;8.446;2024-03-06T06:04:44;6.97;;;3.25;;
81026;SDS011;70506;49.320;8.446;2024-03-06T06:07:10;5.88;;;3.13;;
81026;SDS011;70506;49.320;8.446;2024-03-06T06:09:35;7.13;;;3.75;;
81026;SDS011;70506;49.320;8.446;2024-03-06T06:12:01;5.53;;;3.13;;
81026;SDS011;70506;49.320;8.446;2024-03-06T06:14:26;6.37;;;3.13;;
81026;SDS011;70506;49.320;8.446;2024-03-06T06:16:54;6.82;;;3.22;;
81026;SDS011;70506;49.320;8.446;2024-03-06T06:21:46;7.37;;;3.23;;
81026;SDS011;70506;49.320;8.446;2024-03-06T06:24:12;6.32;;;3.13;;
81026;SDS011;70506;49.320;8.446;2024-03-06T06:26:38;3.90;;;2.60;;
81026;SDS011;70506;49.320;8.446;2024-03-06T06:29:03;7.83;;;2.50;;
81026;SDS011;70506;49.320;8.446;2024-03-06T06:31:28;6.37;;;3.17;;
81026;SDS011;70506;49.320;8.446;2024-03-06T06:33:54;8.97;;;2.67;;
81026;SDS011;70506;49.320;8.446;2024-03-06T06:36:19;6.60;;;3.28;;
81026;SDS011;70506;49.320;8.446;2024-03-06T06:38:45;5.45;;;2.95;;
81026;SDS011;70506;49.320;8.446;2024-03-06T06:41:11;6.50;;;3.22;;
81026;SDS011;70506;49.320;8.446;2024-03-06T06:43:36;5.63;;;2.57;;
81026;SDS011;70506;49.320;8.446;2024-03-06T06:46:05;7.28;;;2.97;;
81026;SDS011;70506;49.320;8.446;2024-03-06T06:48:31;5.32;;;3.00;;
81026;SDS011;70506;49.320;8.446;2024-03-06T06:50:58;6.65;;;3.03;;
81026;SDS011;70506;49.320;8.446;2024-03-06T06:53:25;7.43;;;3.22;;
81026;SDS011;70506;49.320;8.446;2024-03-06T06:55:50;9.53;;;2.97;;
81026;SDS011;70506;49.320;8.446;2024-03-06T06:58:16;6.43;;;2.97;;
81026;SDS011;70506;49.320;8.446;2024-03-06T07:00:41;5.60;;;3.10;;
81026;SDS011;70506;49.320;8.446;2024-03-06T07:03:07;7.63;;;3.00;;
81026;SDS011;70506;49.320;8.446;2024-03-06T07:05:32;5.80;;;3.00;;
81026;SDS011;70506;49.320;8.446;2024-03-06T07:07:58;4.00;;;2.22;;
81026;SDS011;70506;49.320;8.446;2024-03-06T07:10:23;6.40;;;2.60;;
81026;SDS011;70506;49.320;8.446;2024-03-06T07:12:48;8.15;;;3.05;;
81026;SDS011;70506;49.320;8.446;2024-03-06T07:15:14;8.40;;;2.97;;
81026;SDS011;70506;49.320;8.446;2024-03-06T07:17:39;4.10;;;2.33;;
81026;SDS011;70506;49.320;8.446;2024-03-06T07:20:04;4.20;;;2.30;;
81026;SDS011;70506;49.320;8.446;2024-03-06T07:22:31;6.57;;;2.22;;
81026;SDS011;70506;49.320;8.446;2024-03-06T07:24:56;4.57;;;2.30;;
81026;SDS011;70506;49.320;8.446;2024-03-06T07:27:22;3.90;;;2.23;;
81026;SDS011;70506;49.320;8.446;2024-03-06T07:29:47;5.18;;;2.55;;
81026;SDS011;70506;49.320;8.446;2024-03-06T07:32:12;6.50;;;2.53;;
81026;SDS011;70506;49.320;8.446;2024-03-06T07:34:38;5.43;;;2.23;;
81026;SDS011;70506;49.320;8.446;2024-03-06T07:37:03;6.65;;;2.45;;
81026;SDS011;70506;49.320;8.446;2024-03-06T07:39:29;5.63;;;2.17;;
81026;SDS011;70506;49.320;8.446;2024-03-06T07:41:56;3.80;;;1.92;;
81026;SDS011;70506;49.320;8.446;2024-03-06T07:44:21;4.15;;;2.60;;
81026;SDS011;70506;49.320;8.446;2024-03-06T07:46:47;6.30;;;2.40;;
81026;SDS011;70506;49.320;8.446;2024-03-06T07:49:13;5.15;;;2.25;;
81026;SDS011;70506;49.320;8.446;2024-03-06T07:51:38;6.72;;;2.80;;
81026;SDS011;70506;49.320;8.446;2024-03-06T07:54:05;7.20;;;2.80;;
81026;SDS011;70506;49.320;8.446;2024-03-06T07:56:31;4.75;;;2.35;;
81026;SDS011;70506;49.320;8.446;2024-03-06T07:58:56;4.20;;;2.30;;
81026;SDS011;70506;49.320;8.446;2024-03-06T08:01:22;5.55;;;2.22;;
81026;SDS011;70506;49.320;8.446;2024-03-06T08:03:47;4.00;;;2.08;;
81026;SDS011;70506;49.320;8.446;2024-03-06T08:06:13;5.50;;;2.30;;
81026;SDS011;70506;49.320;8.446;2024-03-06T08:08:41;6.38;;;2.58;;
81026;SDS011;70506;49.320;8.446;2024-03-06T08:11:09;4.85;;;2.28;;
81026;SDS011;70506;49.320;8.446;2024-03-06T08:13:36;4.55;;;2.22;;
81026;SDS011;70506;49.320;8.446;2024-03-06T08:16:01;3.25;;;1.88;;
81026;SDS011;70506;49.320;8.446;2024-03-06T08:18:27;5.80;;;1.83;;
81026;SDS011;70506;49.320;8.446;2024-03-06T08:20:53;5.35;;;2.30;;
81026;SDS011;70506;49.320;8.446;2024-03-06T08:23:18;4.57;;;1.87;;
81026;SDS011;70506;49.320;8.446;2024-03-06T08:25:44;3.58;;;1.48;;
81026;SDS011;70506;49.320;8.446;2024-03-06T08:28:10;3.05;;;1.55;;
81026;SDS011;70506;49.320;8.446;2024-03-06T08:30:35;2.97;;;1.73;;
81026;SDS011;70506;49.320;8.446;2024-03-06T08:33:01;3.47;;;1.60;;
81026;SDS011;70506;49.320;8.446;2024-03-06T08:35:26;3.80;;;2.30;;
81026;SDS011;70506;49.320;8.446;2024-03-06T08:37:51;3.00;;;1.52;;
81026;SDS011;70506;49.320;8.446;2024-03-06T08:40:17;5.73;;;1.80;;
81026;SDS011;70506;49.320;8.446;2024-03-06T08:42:45;6.25;;;1.95;;
81026;SDS011;70506;49.320;8.446;2024-03-06T08:45:14;4.63;;;2.20;;
81026;SDS011;70506;49.320;8.446;2024-03-06T08:47:40;4.72;;;2.58;;
81026;SDS011;70506;49.320;8.446;2024-03-06T08:50:05;5.80;;;3.22;;
81026;SDS011;70506;49.320;8.446;2024-03-06T08:52:32;5.50;;;2.15;;
81026;SDS011;70506;49.320;8.446;2024-03-06T08:54:58;6.47;;;1.98;;
81026;SDS011;70506;49.320;8.446;2024-03-06T08:57:23;5.07;;;2.28;;
81026;SDS011;70506;49.320;8.446;2024-03-06T08:59:50;4.10;;;2.15;;
81026;SDS011;70506;49.320;8.446;2024-03-06T09:02:18;3.95;;;2.17;;
81026;SDS011;70506;49.320;8.446;2024-03-06T09:04:44;4.15;;;1.98;;
81026;SDS011;70506;49.320;8.446;2024-03-06T09:07:10;3.58;;;2.03;;
81026;SDS011;70506;49.320;8.446;2024-03-06T09:09:36;4.05;;;2.40;;
81026;SDS011;70506;49.320;8.446;2024-03-06T09:12:02;4.45;;;1.90;;
81026;SDS011;70506;49.320;8.446;2024-03-06T09:14:30;2.97;;;1.65;;
81026;SDS011;70506;49.320;8.446;2024-03-06T09:16:56;3.30;;;1.33;;
81026;SDS011;70506;49.320;8.446;2024-03-06T09:19:22;4.93;;;1.70;;
81026;SDS011;70506;49.320;8.446;2024-03-06T09:21:47;3.00;;;1.60;;
81026;SDS011;70506;49.320;8.446;2024-03-06T09:24:13;4.00;;;1.80;;
81026;SDS011;70506;49.320;8.446;2024-03-06T09:26:39;5.10;;;1.80;;
81026;SDS011;70506;49.320;8.446;2024-03-06T09:29:04;3.10;;;1.83;;
81026;SDS011;70506;49.320;8.446;2024-03-06T09:31:29;8.57;;;2.45;;
81026;SDS011;70506;49.320;8.446;2024-03-06T09:33:55;4.30;;;2.35;;
81026;SDS011;70506;49.320;8.446;2024-03-06T09:36:20;7.27;;;1.80;;
81026;SDS011;70506;49.320;8.446;2024-03-06T09:38:46;2.25;;;1.40;;
81026;SDS011;70506;49.320;8.446;2024-03-06T09:41:11;3.67;;;1.60;;
81026;SDS011;70506;49.320;8.446;2024-03-06T09:43:36;5.97;;;1.80;;
81026;SDS011;70506;49.320;8.446;2024-03-06T09:46:02;2.83;;;1.70;;
81026;SDS011;70506;49.320;8.446;2024-03-06T09:48:27;4.15;;;1.50;;
81026;SDS011;70506;49.320;8.446;2024-03-06T09:50:54;2.83;;;1.50;;
81026;SDS011;70506;49.320;8.446;2024-03-06T09:53:25;3.20;;;1.52;;
81026;SDS011;70506;49.320;8.446;2024-03-06T09:55:51;3.10;;;1.60;;
81026;SDS011;70506;49.320;8.446;2024-03-06T09:58:16;5.27;;;2.00;;
81026;SDS011;70506;49.320;8.446;2024-03-06T10:00:41;5.63;;;2.00;;
81026;SDS011;70506;49.320;8.446;2024-03-06T10:03:07;4.32;;;1.80;;
81026;SDS011;70506;49.320;8.446;2024-03-06T10:05:34;4.88;;;1.52;;
81026;SDS011;70506;49.320;8.446;2024-03-06T10:08:02;2.75;;;1.60;;
81026;SDS011;70506;49.320;8.446;2024-03-06T10:10:29;4.88;;;2.00;;
81026;SDS011;70506;49.320;8.446;2024-03-06T10:12:54;6.38;;;2.15;;
81026;SDS011;70506;49.320;8.446;2024-03-06T10:15:22;5.40;;;2.15;;
81026;SDS011;70506;49.320;8.446;2024-03-06T10:17:47;9.90;;;2.55;;
81026;SDS011;70506;49.320;8.446;2024-03-06T10:20:17;5.28;;;2.58;;
81026;SDS011;70506;49.320;8.446;2024-03-06T10:22:48;6.05;;;2.05;;
81026;SDS011;70506;49.320;8.446;2024-03-06T10:25:18;4.40;;;2.15;;
81026;SDS011;70506;49.320;8.446;2024-03-06T10:27:45;5.57;;;2.45;;
81026;SDS011;70506;49.320;8.446;2024-03-06T10:30:10;5.60;;;2.78;;
81026;SDS011;70506;49.320;8.446;2024-03-06T10:32:38;7.72;;;2.90;;
81026;SDS011;70506;49.320;8.446;2024-03-06T10:35:04;6.35;;;2.85;;
81026;SDS011;70506;49.320;8.446;2024-03-06T10:37:31;5.72;;;2.72;;
81026;SDS011;70506;49.320;8.446;2024-03-06T10:39:59;5.22;;;2.78;;
81026;SDS011;70506;49.320;8.446;2024-03-06T10:42:30;8.20;;;2.70;;
81026;SDS011;70506;49.320;8.446;2024-03-06T10:47:22;7.30;;;2.40;;
81026;SDS011;70506;49.320;8.446;2024-03-06T10:49:48;4.13;;;2.45;;
81026;SDS011;70506;49.320;8.446;2024-03-06T10:52:15;7.28;;;2.88;;
81026;SDS011;70506;49.320;8.446;2024-03-06T10:54:41;6.88;;;3.03;;
81026;SDS011;70506;49.320;8.446;2024-03-06T10:57:08;7.13;;;3.33;;
81026;SDS011;70506;49.320;8.446;2024-03-06T10:59:35;9.35;;;3.90;;
81026;SDS011;70506;49.320;8.446;2024-03-06T11:02:00;7.80;;;3.17;;
81026;SDS011;70506;49.320;8.446;2024-03-06T11:04:26;6.65;;;3.30;;
81026;SDS011;70506;49.320;8.446;2024-03-06T11:06:59;8.07;;;3.72;;
81026;SDS011;70506;49.320;8.446;2024-03-06T11:09:25;7.28;;;3.42;;
81026;SDS011;70506;49.320;8.446;2024-03-06T11:12:00;7.45;;;3.95;;
81026;SDS011;70506;49.320;8.446;2024-03-06T11:14:25;7.97;;;4.00;;
81026;SDS011;70506;49.320;8.446;2024-03-06T11:19:25;7.07;;;3.65;;
81026;SDS011;70506;49.320;8.446;2024-03-06T11:21:50;7.35;;;3.58;;
81026;SDS011;70506;49.320;8.446;2024-03-06T11:24:19;7.93;;;3.80;;
81026;SDS011;70506;49.320;8.446;2024-03-06T11:26:47;8.95;;;4.20;;
81026;SDS011;70506;49.320;8.446;2024-03-06T11:29:27;6.38;;;3.03;;
81026;SDS011;70506;49.320;8.446;2024-03-06T11:31:57;8.90;;;3.45;;
81026;SDS011;70506;49.320;8.446;2024-03-06T11:34:25;6.68;;;3.60;;
81026;SDS011;70506;49.320;8.446;2024-03-06T11:36:53;7.50;;;3.13;;
81026;SDS011;70506;49.320;8.446;2024-03-06T11:39:19;6.55;;;3.65;;
81026;SDS011;70506;49.320;8.446;2024-03-06T11:41:48;7.10;;;3.30;;
81026;SDS011;70506;49.320;8.446;2024-03-06T11:44:15;6.80;;;3.42;;
81026;SDS011;70506;49.320;8.446;2024-03-06T11:46:45;9.90;;;3.58;;
81026;SDS011;70506;49.320;8.446;2024-03-06T11:49:16;8.57;;;3.78;;
81026;SDS011;70506;49.320;8.446;2024-03-06T11:51:47;12.65;;;4.35;;
81026;SDS011;70506;49.320;8.446;2024-03-06T11:54:13;7.22;;;3.92;;
81026;SDS011;70506;49.320;8.446;2024-03-06T11:56:39;9.88;;;3.88;;
81026;SDS011;70506;49.320;8.446;2024-03-06T11:59:05;7.35;;;3.38;;
81026;SDS011;70506;49.320;8.446;2024-03-06T12:01:32;10.25;;;4.25;;
81026;SDS011;70506;49.320;8.446;2024-03-06T12:06:23;10.30;;;4.70;;
81026;SDS011;70506;49.320;8.446;2024-03-06T12:08:48;9.75;;;4.97;;
81026;SDS011;70506;49.320;8.446;2024-03-06T12:11:14;10.60;;;5.03;;
81026;SDS011;70506;49.320;8.446;2024-03-06T12:13:41;12.10;;;5.27;;
81026;SDS011;70506;49.320;8.446;2024-03-06T12:16:07;11.55;;;5.57;;
81026;SDS011;70506;49.320;8.446;2024-03-06T12:18:32;10.77;;;5.82;;
81026;SDS011;70506;49.320;8.446;2024-03-06T12:21:00;10.40;;;5.53;;
81026;SDS011;70506;49.320;8.446;2024-03-06T12:23:27;11.90;;;5.20;;
81026;SDS011;70506;49.320;8.446;2024-03-06T12:26:02;12.88;;;6.40;;
81026;SDS011;70506;49.320;8.446;2024-03-06T12:28:29;11.20;;;5.63;;
81026;SDS011;70506;49.320;8.446;2024-03-06T12:30:55;9.88;;;4.72;;
81026;SDS011;70506;49.320;8.446;2024-03-06T12:33:20;10.30;;;5.15;;
81026;SDS011;70506;49.320;8.446;2024-03-06T12:35:46;10.38;;;5.30;;
81026;SDS011;70506;49.320;8.446;2024-03-06T12:38:11;10.40;;;5.22;;
81026;SDS011;70506;49.320;8.446;2024-03-06T12:40:38;10.73;;;5.30;;
81026;SDS011;70506;49.320;8.446;2024-03-06T12:43:04;11.25;;;5.05;;
81026;SDS011;70506;49.320;8.446;2024-03-06T12:45:30;10.60;;;4.80;;
81026;SDS011;70506;49.320;8.446;2024-03-06T12:47:55;11.93;;;5.10;;
81026;SDS011;70506;49.320;8.446;2024-03-06T12:50:21;10.52;;;5.05;;
81026;SDS011;70506;49.320;8.446;2024-03-06T12:52:46;9.60;;;4.83;;
81026;SDS011;70506;49.320;8.446;2024-03-06T12:55:11;8.90;;;4.60;;
81026;SDS011;70506;49.320;8.446;2024-03-06T12:57:36;9.00;;;4.47;;
81026;SDS011;70506;49.320;8.446;2024-03-06T13:00:02;9.90;;;4.60;;
81026;SDS011;70506;49.320;8.446;2024-03-06T13:02:40;9.90;;;4.88;;
81026;SDS011;70506;49.320;8.446;2024-03-06T13:05:09;11.38;;;4.70;;
81026;SDS011;70506;49.320;8.446;2024-03-06T13:07:34;10.32;;;4.80;;
81026;SDS011;70506;49.320;8.446;2024-03-06T13:10:01;9.48;;;4.57;;
81026;SDS011;70506;49.320;8.446;2024-03-06T13:12:26;15.00;;;5.50;;
81026;SDS011;70506;49.320;8.446;2024-03-06T13:14:51;8.00;;;4.40;;
81026;SDS011;70506;49.320;8.446;2024-03-06T13:17:17;11.05;;;4.45;;
81026;SDS011;70506;49.320;8.446;2024-03-06T13:19:43;10.60;;;4.78;;
81026;SDS011;70506;49.320;8.446;2024-03-06T13:22:08;10.67;;;5.27;;
81026;SDS011;70506;49.320;8.446;2024-03-06T13:24:33;10.43;;;5.47;;
81026;SDS011;70506;49.320;8.446;2024-03-06T13:26:59;12.17;;;5.33;;
81026;SDS011;70506;49.320;8.446;2024-03-06T13:29:24;9.90;;;5.05;;
81026;SDS011;70506;49.320;8.446;2024-03-06T13:31:50;11.55;;;4.72;;
81026;SDS011;70506;49.320;8.446;2024-03-06T13:34:15;11.30;;;5.32;;
81026;SDS011;70506;49.320;8.446;2024-03-06T13:36:41;11.43;;;5.32;;
81026;SDS011;70506;49.320;8.446;2024-03-06T13:39:06;10.80;;;4.90;;
81026;SDS011;70506;49.320;8.446;2024-03-06T13:41:32;10.30;;;5.07;;
81026;SDS011;70506;49.320;8.446;2024-03-06T13:43:57;11.83;;;5.13;;
81026;SDS011;70506;49.320;8.446;2024-03-06T13:46:22;10.63;;;4.90;;
81026;SDS011;70506;49.320;8.446;2024-03-06T13:48:47;12.33;;;5.50;;
81026;SDS011;70506;49.320;8.446;2024-03-06T13:51:13;8.50;;;5.13;;
81026;SDS011;70506;49.320;8.446;2024-03-06T13:53:38;10.30;;;5.40;;
81026;SDS011;70506;49.320;8.446;2024-03-06T13:56:03;10.40;;;5.20;;
81026;SDS011;70506;49.320;8.446;2024-03-06T13:58:29;10.20;;;4.88;;
81026;SDS011;70506;49.320;8.446;2024-03-06T14:00:54;12.97;;;6.20;;
81026;SDS011;70506;49.320;8.446;2024-03-06T14:03:19;13.27;;;5.30;;
81026;SDS011;70506;49.320;8.446;2024-03-06T14:05:46;12.70;;;5.80;;
81026;SDS011;70506;49.320;8.446;2024-03-06T14:08:12;11.93;;;5.70;;
81026;SDS011;70506;49.320;8.446;2024-03-06T14:10:44;14.02;;;5.72;;
81026;SDS011;70506;49.320;8.446;2024-03-06T14:13:10;9.32;;;5.00;;
81026;SDS011;70506;49.320;8.446;2024-03-06T14:15:36;11.38;;;5.60;;
81026;SDS011;70506;49.320;8.446;2024-03-06T14:18:01;12.20;;;5.47;;
81026;SDS011;70506;49.320;8.446;2024-03-06T14:20:26;15.90;;;6.15;;
81026;SDS011;70506;49.320;8.446;2024-03-06T14:22:52;12.00;;;5.47;;
81026;SDS011;70506;49.320;8.446;2024-03-06T14:25:18;13.15;;;5.28;;
81026;SDS011;70506;49.320;8.446;2024-03-06T14:27:43;10.32;;;5.20;;
81026;SDS011;70506;49.320;8.446;2024-03-06T14:30:09;13.10;;;5.75;;
81026;SDS011;70506;49.320;8.446;2024-03-06T14:32:37;13.70;;;5.63;;
81026;SDS011;70506;49.320;8.446;2024-03-06T14:35:03;15.13;;;6.22;;
81026;SDS011;70506;49.320;8.446;2024-03-06T14:37:28;17.73;;;6.65;;
81026;SDS011;70506;49.320;8.446;2024-03-06T14:39:54;13.30;;;6.72;;
81026;SDS011;70506;49.320;8.446;2024-03-06T14:42:19;13.65;;;5.95;;
81026;SDS011;70506;49.320;8.446;2024-03-06T14:44:45;10.75;;;5.82;;
81026;SDS011;70506;49.320;8.446;2024-03-06T14:47:11;15.63;;;6.28;;
81026;SDS011;70506;49.320;8.446;2024-03-06T14:49:37;16.30;;;6.50;;
81026;SDS011;70506;49.320;8.446;2024-03-06T14:52:02;13.27;;;6.33;;